createdAt,value
2018-07-11T00:01:05.376Z,79.10
2018-07-11T00:03:44.480Z,79.32
2018-07-11T00:06:13.610Z,79.51
2018-07-11T00:08:42.159Z,79.36
2018-07-11T00:11:11.592Z,79.32
2018-07-11T00:13:41.197Z,79.18
2018-07-11T00:16:12.592Z,79.65
2018-07-11T00:18:41.216Z,79.74
2018-07-11T00:21:10.164Z,79.64
2018-07-11T00:23:38.854Z,79.82
2018-07-11T00:26:08.605Z,79.43
2018-07-11T00:28:37.185Z,79.51
2018-07-11T00:31:06.057Z,79.42
2018-07-11T00:33:34.608Z,79.40
2018-07-11T00:36:03.287Z,78.40
2018-07-11T00:38:32.233Z,79.12
2018-07-11T00:41:01.397Z,78.77
2018-07-11T00:43:32.421Z,79.34
2018-07-11T00:46:01.462Z,79.00
2018-07-11T00:48:30.165Z,79.31
2018-07-11T00:50:59.531Z,79.11
2018-07-11T00:53:31.407Z,78.81
2018-07-11T00:56:00.653Z,78.61
2018-07-11T00:58:31.346Z,78.95
2018-07-11T01:01:15.450Z,79.04
2018-07-11T01:03:49.783Z,78.95
2018-07-11T01:06:18.926Z,79.11
2018-07-11T01:08:48.637Z,78.51
2018-07-11T01:11:17.895Z,78.89
2018-07-11T01:13:47.809Z,78.99
2018-07-11T01:16:18.396Z,79.20
2018-07-11T01:19:08.037Z,79.45
2018-07-11T01:21:37.269Z,79.98
2018-07-11T01:24:05.836Z,79.55
2018-07-11T01:26:39.440Z,79.61
2018-07-11T01:29:08.490Z,79.77
2018-07-11T01:31:37.671Z,79.69
2018-07-11T01:34:06.322Z,79.87
2018-07-11T01:36:34.796Z,80.10
2018-07-11T01:39:03.684Z,80.10
2018-07-11T01:41:32.311Z,79.90
2018-07-11T01:44:01.921Z,79.50
2018-07-11T01:46:39.787Z,79.23
2018-07-11T01:49:08.389Z,79.22
2018-07-11T01:52:45.677Z,78.98
2018-07-11T01:55:14.637Z,78.92
2018-07-11T01:57:43.283Z,79.03
2018-07-11T02:00:12.068Z,78.88
2018-07-11T02:02:40.718Z,78.72
2018-07-11T02:05:09.357Z,78.62
2018-07-11T02:07:38.751Z,78.44
2018-07-11T02:10:07.419Z,78.81
2018-07-11T02:12:36.615Z,78.86
2018-07-11T02:15:06.136Z,79.07
2018-07-11T02:17:37.063Z,79.37
2018-07-11T02:20:07.527Z,79.25
2018-07-11T02:22:37.954Z,79.37
2018-07-11T02:25:06.493Z,79.31
2018-07-11T02:27:35.232Z,79.36
2018-07-11T02:30:04.229Z,79.71
2018-07-11T02:32:33.694Z,79.43
2018-07-11T02:35:02.339Z,79.20
2018-07-11T02:37:31.008Z,79.02
2018-07-11T02:39:59.626Z,79.24
2018-07-11T02:42:28.377Z,78.96
2018-07-11T02:44:56.930Z,78.49
2018-07-11T02:47:30.760Z,78.70
2018-07-11T02:49:59.274Z,78.90
2018-07-11T02:52:27.959Z,78.93
2018-07-11T02:54:57.371Z,79.17
2018-07-11T02:57:26.113Z,78.91
2018-07-11T02:59:54.647Z,79.02
2018-07-11T03:02:23.156Z,79.44
2018-07-11T03:04:51.731Z,79.58
2018-07-11T03:07:20.265Z,79.97
2018-07-11T03:09:48.823Z,79.80
2018-07-11T03:12:17.354Z,79.98
2018-07-11T03:14:49.662Z,80.14
2018-07-11T03:17:18.188Z,80.36
2018-07-11T03:19:46.752Z,80.26
2018-07-11T03:22:15.798Z,80.30
2018-07-11T03:24:44.500Z,80.16
2018-07-11T03:27:13.339Z,80.04
2018-07-11T03:29:41.981Z,80.01
2018-07-11T03:32:10.729Z,80.16
2018-07-11T03:34:39.207Z,80.03
2018-07-11T03:37:07.992Z,80.23
2018-07-11T03:39:36.617Z,79.84
2018-07-11T03:42:05.329Z,80.35
2018-07-11T03:44:33.957Z,80.33
2018-07-11T03:47:02.654Z,79.94
2018-07-11T03:49:31.375Z,79.76
2018-07-11T03:51:59.946Z,79.95
2018-07-11T03:54:28.509Z,79.79
2018-07-11T03:56:57.385Z,80.00
2018-07-11T03:59:25.995Z,80.62
2018-07-11T04:01:55.339Z,80.35
2018-07-11T04:04:23.998Z,79.81
2018-07-11T04:06:52.697Z,80.17
2018-07-11T04:09:21.345Z,80.44
2018-07-11T04:11:50.079Z,80.65
2018-07-11T04:14:18.760Z,80.49
2018-07-11T04:16:47.503Z,81.01
2018-07-11T04:19:16.102Z,81.20
2018-07-11T04:21:44.949Z,81.05
2018-07-11T04:24:14.163Z,80.67
2018-07-11T04:26:42.971Z,80.28
2018-07-11T04:29:12.017Z,80.52
2018-07-11T04:31:40.586Z,80.76
2018-07-11T04:34:09.546Z,80.96
2018-07-11T04:36:38.178Z,80.72
2018-07-11T04:39:06.618Z,80.85
2018-07-11T04:41:35.136Z,80.38
2018-07-11T04:44:04.341Z,81.15
2018-07-11T04:46:32.930Z,81.33
2018-07-11T04:49:01.891Z,81.09
2018-07-11T04:51:30.582Z,81.06
2018-07-11T04:53:59.233Z,80.83
2018-07-11T04:56:28.008Z,80.88
2018-07-11T04:58:57.393Z,80.93
2018-07-11T05:01:25.862Z,81.12
2018-07-11T05:03:54.441Z,81.12
2018-07-11T05:06:23.360Z,81.22
2018-07-11T05:08:52.042Z,81.65
2018-07-11T05:11:20.580Z,82.22
2018-07-11T05:13:49.126Z,81.65
2018-07-11T05:16:17.738Z,81.68
2018-07-11T05:18:47.023Z,81.74
2018-07-11T05:21:16.487Z,81.74
2018-07-11T05:23:45.361Z,81.58
2018-07-11T05:26:14.173Z,81.07
2018-07-11T05:29:12.267Z,81.68
2018-07-11T05:31:40.891Z,81.80
2018-07-11T05:34:10.304Z,82.30
2018-07-11T05:36:38.738Z,82.05
2018-07-11T05:39:08.054Z,82.26
2018-07-11T05:41:36.569Z,82.21
2018-07-11T05:44:05.255Z,82.12
2018-07-11T05:46:33.843Z,81.90
2018-07-11T05:49:02.788Z,81.89
2018-07-11T05:51:31.448Z,82.06
2018-07-11T05:54:00.253Z,81.92
2018-07-11T05:56:29.146Z,81.80
2018-07-11T05:58:57.997Z,81.77
2018-07-11T06:01:26.577Z,81.81
2018-07-11T06:03:55.121Z,81.75
2018-07-11T06:06:23.718Z,81.52
2018-07-11T06:08:52.301Z,81.78
2018-07-11T06:11:22.381Z,81.50
2018-07-11T06:13:51.815Z,81.63
2018-07-11T06:16:21.310Z,81.62
2018-07-11T06:18:50.691Z,81.21
2018-07-11T06:21:21.076Z,81.09
2018-07-11T06:23:52.006Z,81.49
2018-07-11T06:26:21.110Z,81.35
2018-07-11T06:28:50.222Z,80.79
2018-07-11T06:31:18.863Z,80.88
2018-07-11T06:33:47.645Z,81.02
2018-07-11T06:36:16.557Z,81.28
2018-07-11T06:38:45.181Z,81.07
2018-07-11T06:41:13.806Z,81.25
2018-07-11T06:43:42.405Z,81.36
2018-07-11T06:46:11.926Z,81.15
2018-07-11T06:48:40.590Z,80.46
2018-07-11T06:51:09.659Z,80.53
2018-07-11T06:53:38.310Z,80.66
2018-07-11T06:56:07.008Z,80.41
2018-07-11T06:58:35.465Z,80.42
2018-07-11T07:01:04.871Z,80.27
2018-07-11T07:03:33.578Z,80.60
2018-07-11T07:06:02.164Z,80.21
2018-07-11T07:08:30.870Z,80.18
2018-07-11T07:11:00.449Z,80.43
2018-07-11T07:13:30.948Z,80.68
2018-07-11T07:15:59.563Z,81.22
2018-07-11T07:18:39.436Z,81.27
2018-07-11T07:21:07.952Z,80.86
2018-07-11T07:23:36.647Z,80.49
2018-07-11T07:26:05.641Z,80.27
2018-07-11T07:28:34.588Z,80.08
2018-07-11T07:31:03.859Z,80.30
2018-07-11T07:33:34.352Z,80.47
2018-07-11T07:36:03.970Z,80.34
2018-07-11T07:38:39.996Z,80.87
2018-07-11T07:41:10.452Z,81.24
2018-07-11T07:43:42.239Z,80.99
2018-07-11T07:46:10.868Z,80.33
2018-07-11T07:48:39.824Z,79.72
2018-07-11T07:51:08.326Z,79.69
2018-07-11T07:53:36.966Z,79.82
2018-07-11T07:56:07.027Z,80.45
2018-07-11T07:58:36.662Z,79.95
2018-07-11T08:01:05.258Z,80.63
2018-07-11T08:03:35.632Z,80.61
2018-07-11T08:06:04.253Z,80.86
2018-07-11T08:08:33.897Z,81.29
2018-07-11T08:11:02.585Z,81.52
2018-07-11T08:13:31.129Z,81.32
2018-07-11T08:15:59.708Z,81.78
2018-07-11T08:18:29.088Z,81.55
2018-07-11T08:20:57.675Z,80.68
2018-07-11T08:23:39.950Z,80.60
2018-07-11T08:26:19.804Z,80.47
2018-07-11T08:29:03.925Z,80.50
2018-07-11T08:31:44.107Z,80.46
2018-07-11T08:34:57.584Z,80.74
2018-07-11T08:37:35.129Z,80.40
2018-07-11T08:40:19.809Z,80.48
2018-07-11T08:43:29.136Z,80.30
2018-07-11T08:49:11.150Z,79.96
2018-07-11T08:52:02.158Z,80.51
2018-07-11T08:54:41.938Z,80.15
2018-07-11T08:58:22.227Z,80.62
2018-07-11T09:01:05.471Z,80.09
2018-07-11T09:04:41.047Z,80.46
2018-07-11T09:07:16.411Z,80.11
2018-07-11T09:10:00.861Z,80.11
2018-07-11T09:13:00.531Z,80.00
2018-07-11T09:16:16.247Z,80.69
2018-07-11T09:19:51.873Z,80.64
2018-07-11T09:24:41.078Z,80.51
2018-07-11T09:27:10.348Z,80.49
2018-07-11T09:29:39.814Z,80.41
2018-07-11T09:32:08.393Z,80.75
2018-07-11T09:34:36.911Z,80.94
2018-07-11T09:37:05.455Z,80.46
2018-07-11T09:39:34.017Z,80.71
2018-07-11T09:42:04.514Z,79.76
2018-07-11T09:44:33.800Z,79.12
2018-07-11T09:47:06.570Z,79.14
2018-07-11T09:49:36.318Z,78.29
2018-07-11T09:52:05.254Z,78.20
2018-07-11T09:54:33.864Z,78.18
2018-07-11T09:57:02.557Z,77.71
2018-07-11T09:59:31.711Z,76.72
2018-07-11T10:02:00.340Z,76.93
2018-07-11T10:04:29.909Z,76.65
2018-07-11T10:06:59.312Z,76.72
2018-07-11T10:09:29.982Z,77.04
2018-07-11T10:11:58.764Z,77.01
2018-07-11T10:14:27.539Z,77.59
2018-07-11T10:16:56.124Z,77.45
2018-07-11T10:19:25.183Z,77.61
2018-07-11T10:21:53.818Z,76.28
2018-07-11T10:24:22.449Z,75.22
2018-07-11T10:26:51.811Z,75.60
2018-07-11T10:29:20.917Z,76.04
2018-07-11T10:31:49.377Z,76.67
2018-07-11T10:34:18.341Z,75.76
2018-07-11T10:36:47.606Z,76.89
2018-07-11T10:39:16.190Z,76.88
2018-07-11T10:41:44.891Z,76.44
2018-07-11T10:44:13.574Z,75.75
2018-07-11T10:46:42.143Z,76.72
2018-07-11T10:49:10.810Z,76.46
2018-07-11T10:51:39.823Z,76.47
2018-07-11T10:54:08.517Z,76.67
2018-07-11T10:56:37.128Z,76.57
2018-07-11T10:59:05.935Z,76.59
2018-07-11T11:01:34.557Z,76.59
2018-07-11T11:04:03.050Z,76.07
2018-07-11T11:06:31.993Z,76.67
2018-07-11T11:09:00.671Z,76.35
2018-07-11T11:11:29.519Z,75.62
2018-07-11T11:13:58.693Z,76.20
2018-07-11T11:16:27.286Z,76.81
2018-07-11T11:18:55.879Z,76.94
2018-07-11T11:22:54.695Z,76.51
2018-07-11T11:25:23.717Z,76.22
2018-07-11T11:27:52.386Z,76.36
2018-07-11T11:30:21.143Z,75.98
2018-07-11T11:32:50.061Z,75.41
2018-07-11T11:35:18.720Z,75.19
2018-07-11T11:37:47.586Z,75.32
2018-07-11T11:40:16.312Z,75.47
2018-07-11T11:42:45.855Z,74.78
2018-07-11T11:45:15.436Z,73.39
2018-07-11T11:47:44.518Z,73.62
2018-07-11T11:50:13.160Z,71.92
2018-07-11T11:52:41.707Z,71.94
2018-07-11T11:55:10.283Z,72.20
2018-07-11T11:57:38.955Z,72.56
2018-07-11T12:00:07.787Z,71.68
2018-07-11T12:02:36.385Z,72.32
2018-07-11T12:05:04.983Z,71.69
2018-07-11T12:07:33.530Z,71.73
2018-07-11T12:10:02.182Z,71.12
2018-07-11T12:12:30.977Z,71.58
2018-07-11T12:14:59.878Z,71.16
2018-07-11T12:17:28.542Z,71.54
2018-07-11T12:19:57.097Z,70.67
2018-07-11T12:22:26.705Z,71.53
2018-07-11T12:24:55.467Z,71.98
2018-07-11T12:27:25.230Z,71.73
2018-07-11T12:29:54.833Z,71.74
2018-07-11T12:32:23.702Z,71.39
2018-07-11T12:34:52.509Z,71.97
2018-07-11T12:37:23.096Z,70.71
2018-07-11T12:39:51.996Z,70.83
2018-07-11T12:42:21.612Z,71.68
2018-07-11T12:44:51.083Z,71.40
2018-07-11T12:47:24.937Z,71.18
2018-07-11T12:49:53.483Z,70.54
2018-07-11T12:52:23.356Z,71.09
2018-07-11T12:54:52.568Z,70.77
2018-07-11T12:57:21.639Z,71.93
2018-07-11T12:59:50.694Z,71.11
2018-07-11T13:02:19.528Z,70.51
2018-07-11T13:04:48.425Z,70.38
2018-07-11T13:07:17.096Z,70.19
2018-07-11T13:09:45.856Z,70.50
2018-07-11T13:12:14.540Z,70.49
2018-07-11T13:14:43.213Z,70.54
2018-07-11T13:17:11.806Z,70.43
2018-07-11T13:19:40.539Z,70.48
2018-07-11T13:22:09.896Z,69.94
2018-07-11T13:24:39.095Z,70.61
2018-07-11T13:27:08.336Z,70.44
2018-07-11T13:29:37.030Z,71.13
2018-07-11T13:32:05.788Z,70.72
2018-07-11T13:34:35.236Z,69.61
2018-07-11T13:37:04.137Z,69.64
2018-07-11T13:39:32.904Z,68.74
2018-07-11T13:42:01.735Z,68.40
2018-07-11T13:44:31.241Z,68.97
2018-07-11T13:46:59.983Z,68.66
2018-07-11T13:49:29.120Z,68.55
2018-07-11T13:51:57.830Z,68.33
2018-07-11T13:54:28.705Z,68.33
2018-07-11T13:56:57.545Z,68.39
2018-07-11T13:59:26.223Z,67.61
2018-07-11T14:01:55.070Z,67.25
2018-07-11T14:04:23.708Z,66.93
2018-07-11T14:06:52.481Z,66.54
2018-07-11T14:09:21.180Z,67.19
2018-07-11T14:11:49.992Z,66.90
2018-07-11T14:14:18.661Z,65.20
2018-07-11T14:16:47.367Z,65.21
2018-07-11T14:19:15.972Z,65.52
2018-07-11T14:21:44.943Z,65.47
2018-07-11T14:24:15.341Z,66.11
2018-07-11T14:26:44.714Z,67.39
2018-07-11T14:29:13.666Z,67.48
2018-07-11T14:31:42.987Z,67.47
2018-07-11T14:34:13.861Z,65.99
2018-07-11T14:36:43.437Z,66.41
2018-07-11T14:39:13.505Z,66.94
2018-07-11T14:41:42.106Z,66.54
2018-07-11T14:44:11.750Z,66.16
2018-07-11T14:46:40.338Z,65.64
2018-07-11T14:49:09.115Z,65.27
2018-07-11T14:51:38.606Z,66.61
2018-07-11T14:54:09.234Z,65.83
2018-07-11T14:56:38.377Z,65.67
2018-07-11T14:59:08.086Z,65.86
2018-07-11T15:01:37.694Z,66.69
2018-07-11T15:04:07.692Z,67.43
2018-07-11T15:06:38.129Z,67.14
2018-07-11T15:09:09.035Z,66.63
2018-07-11T15:11:38.751Z,66.87
2018-07-11T15:14:09.343Z,67.00
2018-07-11T15:16:39.501Z,67.62
2018-07-11T15:19:08.732Z,67.54
2018-07-11T15:21:37.968Z,67.43
2018-07-11T15:24:07.038Z,67.17
2018-07-11T15:26:36.840Z,67.03
2018-07-11T15:29:06.550Z,67.81
2018-07-11T15:31:35.467Z,67.84
2018-07-11T15:34:05.635Z,67.66
2018-07-11T15:36:34.722Z,68.21
2018-07-11T15:39:05.942Z,67.82
2018-07-11T15:41:35.929Z,67.73
2018-07-11T15:44:07.140Z,67.53
2018-07-11T15:46:36.492Z,67.49
2018-07-11T15:49:05.746Z,67.57
2018-07-11T15:51:37.578Z,67.65
2018-07-11T15:54:06.893Z,67.77
2018-07-11T15:56:35.877Z,67.87
2018-07-11T15:59:08.581Z,67.17
2018-07-11T16:01:45.836Z,67.66
2018-07-11T16:04:20.279Z,67.25
2018-07-11T16:06:48.907Z,68.20
2018-07-11T16:09:17.957Z,67.26
2018-07-11T16:11:46.711Z,67.17
2018-07-11T16:14:15.977Z,67.51
2018-07-11T16:16:44.536Z,67.94
2018-07-11T16:19:13.307Z,66.84
2018-07-11T16:21:46.653Z,67.16
2018-07-11T16:24:15.316Z,66.83
2018-07-11T16:26:43.866Z,67.26
2018-07-11T16:29:12.472Z,67.62
2018-07-11T16:31:41.645Z,67.83
2018-07-11T16:34:10.222Z,67.21
2018-07-11T16:36:39.869Z,66.33
2018-07-11T16:39:09.717Z,65.58
2018-07-11T16:41:39.192Z,67.36
2018-07-11T16:44:13.240Z,67.86
2018-07-11T16:46:42.773Z,67.70
2018-07-11T16:49:11.394Z,67.96
2018-07-11T16:51:40.346Z,67.50
2018-07-11T16:54:09.396Z,66.86
2018-07-11T16:56:38.602Z,66.68
2018-07-11T16:59:07.524Z,67.12
2018-07-11T17:01:44.496Z,66.80
2018-07-11T17:04:16.119Z,67.57
2018-07-11T17:06:45.032Z,67.03
2018-07-11T17:09:14.031Z,66.30
2018-07-11T17:11:42.657Z,67.38
2018-07-11T17:14:11.831Z,68.19
2018-07-11T17:16:45.896Z,68.63
2018-07-11T17:19:23.980Z,68.29
2018-07-11T17:21:53.526Z,68.82
2018-07-11T17:24:22.958Z,69.16
2018-07-11T17:26:55.596Z,69.61
2018-07-11T17:29:28.931Z,69.27
2018-07-11T17:32:06.585Z,69.75
2018-07-11T17:34:37.692Z,69.55
2018-07-11T17:37:07.875Z,69.90
2018-07-11T17:40:10.461Z,68.86
2018-07-11T17:42:41.315Z,70.15
2018-07-11T17:45:13.185Z,69.84
2018-07-11T17:48:08.717Z,69.81
2018-07-11T17:50:38.926Z,69.91
2018-07-11T17:53:17.645Z,69.78
2018-07-11T17:55:56.515Z,70.22
2018-07-11T17:58:38.479Z,70.93
2018-07-11T18:01:07.788Z,70.56
2018-07-11T18:03:42.023Z,70.06
2018-07-11T18:06:23.260Z,70.55
2018-07-11T18:09:16.107Z,70.80
2018-07-11T18:11:54.416Z,71.04
2018-07-11T18:15:31.952Z,70.57
2018-07-11T18:18:11.635Z,71.56
2018-07-11T18:20:52.125Z,70.58
2018-07-11T18:24:37.786Z,71.08
2018-07-11T18:28:17.074Z,72.07
2018-07-11T18:30:57.466Z,71.64
2018-07-11T18:36:11.201Z,70.54
2018-07-11T18:38:55.191Z,69.60
2018-07-11T18:42:29.759Z,69.47
2018-07-11T18:45:04.318Z,70.59
2018-07-11T18:47:40.675Z,70.16
2018-07-11T18:52:30.010Z,70.49
2018-07-11T18:55:12.128Z,69.97
2018-07-11T18:59:53.878Z,70.46
2018-07-11T19:02:34.357Z,70.74
2018-07-11T19:05:39.242Z,70.29
2018-07-11T19:08:45.528Z,71.06
2018-07-11T19:11:23.338Z,70.84
2018-07-11T19:13:54.175Z,71.25
2018-07-11T19:16:34.002Z,71.31
2018-07-11T19:19:11.644Z,72.70
2018-07-11T19:22:02.312Z,71.85
2018-07-11T19:24:42.147Z,72.02
2018-07-11T19:27:23.751Z,72.29
2018-07-11T19:30:12.670Z,71.99
2018-07-11T19:33:49.927Z,72.52
2018-07-11T19:36:35.797Z,72.54
2018-07-11T19:39:09.966Z,72.38
2018-07-11T19:41:51.282Z,72.25
2018-07-11T19:44:44.778Z,72.76
2018-07-11T19:48:29.838Z,72.84
2018-07-11T19:51:08.951Z,72.78
2018-07-11T19:53:47.098Z,72.75
2018-07-11T19:56:34.134Z,73.10
2018-07-11T19:59:04.137Z,73.02
2018-07-11T20:01:32.984Z,73.32
2018-07-11T20:04:03.013Z,73.28
2018-07-11T20:06:33.699Z,73.64
2018-07-11T20:09:04.868Z,73.91
2018-07-11T20:11:33.558Z,74.44
2018-07-11T20:14:02.625Z,74.35
2018-07-11T20:16:31.256Z,74.63
2018-07-11T20:19:00.552Z,74.86
2018-07-11T20:21:31.222Z,74.63
2018-07-11T20:24:00.030Z,74.76
2018-07-11T20:26:29.556Z,74.73
2018-07-11T20:28:58.517Z,74.71
2018-07-11T20:31:27.189Z,75.39
2018-07-11T20:33:55.783Z,75.30
2018-07-11T20:36:24.581Z,75.49
2018-07-11T20:38:54.174Z,75.88
2018-07-11T20:41:22.919Z,75.92
2018-07-11T20:43:53.514Z,76.00
2018-07-11T20:46:23.205Z,76.26
2018-07-11T20:48:52.076Z,76.49
2018-07-11T20:51:20.816Z,76.53
2018-07-11T20:53:49.572Z,76.69
2018-07-11T20:56:18.197Z,76.79
2018-07-11T20:58:57.917Z,76.78
2018-07-11T21:01:38.411Z,77.21
2018-07-11T21:05:18.862Z,77.38
2018-07-11T21:10:04.236Z,77.47
2018-07-11T21:12:46.205Z,77.39
2018-07-11T21:15:41.701Z,77.89
2018-07-11T21:19:19.556Z,77.54
2018-07-11T21:21:48.192Z,77.87
2018-07-11T21:24:17.978Z,78.06
2018-07-11T21:26:47.574Z,78.19
2018-07-11T21:29:17.857Z,78.51
2018-07-11T21:31:46.996Z,77.99
2018-07-11T21:34:15.558Z,77.83
2018-07-11T21:36:44.684Z,77.31
2018-07-11T21:39:13.839Z,77.81
2018-07-11T21:41:43.772Z,77.56
2018-07-11T21:44:13.638Z,78.04
2018-07-11T21:46:42.868Z,77.58
2018-07-11T21:49:11.480Z,78.44
2018-07-11T21:51:40.165Z,78.38
2018-07-11T21:54:09.446Z,78.23
2018-07-11T21:56:38.078Z,78.83
2018-07-11T21:59:06.632Z,78.94
2018-07-11T22:01:35.204Z,79.04
2018-07-11T22:04:03.881Z,78.95
2018-07-11T22:06:32.370Z,79.11
2018-07-11T22:09:01.998Z,78.92
2018-07-11T22:11:31.464Z,78.97
2018-07-11T22:14:01.687Z,79.31
2018-07-11T22:16:31.622Z,79.45
2018-07-11T22:19:00.169Z,79.69
2018-07-11T22:21:27.558Z,79.64
2018-07-11T22:23:54.961Z,79.97
2018-07-11T22:26:23.270Z,79.81
2018-07-11T22:28:50.576Z,79.83
2018-07-11T22:31:17.837Z,79.97
2018-07-11T22:33:45.200Z,80.21
2018-07-11T22:36:12.555Z,80.43
2018-07-11T22:38:39.879Z,80.70
2018-07-11T22:41:07.178Z,80.43
2018-07-11T22:43:35.416Z,80.30
2018-07-11T22:46:03.368Z,80.41
2018-07-11T22:48:30.632Z,80.27
2018-07-11T22:50:57.907Z,80.29
2018-07-11T22:53:25.211Z,80.51
2018-07-11T22:55:52.565Z,80.30
2018-07-11T22:58:20.372Z,79.97
2018-07-11T23:00:48.528Z,79.89
2018-07-11T23:03:16.634Z,80.10
2018-07-11T23:05:44.017Z,79.95
2018-07-11T23:08:12.055Z,79.89
2018-07-11T23:10:39.350Z,79.94
2018-07-11T23:13:07.134Z,80.25
2018-07-11T23:15:34.528Z,80.36
2018-07-11T23:18:01.824Z,80.16
2018-07-11T23:20:29.089Z,80.52
2018-07-11T23:22:57.188Z,80.52
2018-07-11T23:25:24.897Z,80.26
2018-07-11T23:27:52.455Z,80.74
2018-07-11T23:30:19.796Z,80.80
2018-07-11T23:32:48.365Z,80.73
2018-07-11T23:35:15.621Z,80.88
2018-07-11T23:37:42.944Z,81.19
2018-07-11T23:40:10.248Z,81.15
2018-07-11T23:42:38.332Z,81.92
2018-07-11T23:45:05.636Z,81.29
2018-07-11T23:47:33.031Z,82.00
2018-07-11T23:50:00.319Z,81.88
2018-07-11T23:52:27.605Z,81.44
2018-07-11T23:54:54.872Z,81.98
2018-07-11T23:57:22.189Z,81.64
2018-07-11T23:59:49.585Z,81.54
